createdAt,value
2019-04-04T00:00:01.300Z,2.1
2019-04-04T00:03:31.619Z,2.19
2019-04-04T00:07:01.888Z,2.39
2019-04-04T00:10:32.830Z,2.55
2019-04-04T00:14:04.950Z,2.25
2019-04-04T00:17:35.178Z,2.36
2019-04-04T00:21:05.408Z,2.09
2019-04-04T00:24:35.554Z,2.5
2019-04-04T00:28:05.763Z,2.44
2019-04-04T00:31:35.956Z,2.04
2019-04-04T00:35:06.352Z,2.55
2019-04-04T00:38:37.996Z,2.39
2019-04-04T00:42:08.825Z,2.1
2019-04-04T00:45:39.071Z,2.52
2019-04-04T00:49:09.237Z,2.21
2019-04-04T00:52:41.329Z,2.55
2019-04-04T00:56:11.536Z,2.05
2019-04-04T00:59:41.726Z,2.27
2019-04-04T01:00:16.367Z,2.35
2019-04-04T01:03:46.585Z,2.19
2019-04-04T01:07:16.688Z,3.4
2019-04-04T01:10:49.540Z,2.01
2019-04-04T01:14:20.204Z,2.83
2019-04-04T01:17:50.303Z,2.19
2019-04-04T01:21:22.169Z,2.36
2019-04-04T01:24:53.106Z,2.75
2019-04-04T01:28:23.226Z,2.11
2019-04-04T01:31:53.379Z,2.4
2019-04-04T01:35:23.540Z,2.7
2019-04-04T01:38:53.658Z,2
2019-04-04T01:42:23.738Z,2.1
2019-04-04T01:45:53.801Z,2.34
2019-04-04T01:49:23.894Z,2.4
2019-04-04T01:52:53.917Z,1.79
2019-04-04T01:56:23.982Z,2.79
2019-04-04T01:59:54.166Z,2.15
2019-04-04T02:03:24.385Z,2.38
2019-04-04T02:06:54.471Z,2.55
2019-04-04T02:10:24.508Z,2.38
2019-04-04T02:13:54.628Z,1.99
2019-04-04T02:17:24.716Z,2.12
2019-04-04T02:20:57.600Z,2.35
2019-04-04T02:24:28.089Z,2.29
2019-04-04T02:27:58.149Z,1.69
2019-04-04T02:31:30.623Z,2.49
2019-04-04T02:35:00.771Z,2.08
2019-04-04T02:38:30.848Z,1.99
2019-04-04T02:42:00.963Z,2.6
2019-04-04T02:45:31.095Z,2.96
2019-04-04T02:49:01.143Z,2.31
2019-04-04T02:52:31.141Z,3.71
2019-04-04T02:56:03.338Z,2.39
2019-04-04T02:59:33.776Z,2.12
2019-04-04T03:00:15.588Z,3
2019-04-04T03:03:45.917Z,2.52
2019-04-04T03:07:16.146Z,2.51
2019-04-04T03:10:49.018Z,2.62
2019-04-04T03:14:19.445Z,2.45
2019-04-04T03:17:49.428Z,2.35
2019-04-04T03:21:22.216Z,2.05
2019-04-04T03:24:53.396Z,1.91
2019-04-04T03:28:23.503Z,3.1
2019-04-04T03:31:53.611Z,2.45
2019-04-04T03:35:27.690Z,2.25
2019-04-04T03:38:59.018Z,2.55
2019-04-04T03:42:29.040Z,2.49
2019-04-04T03:46:01.329Z,2.81
2019-04-04T03:49:31.756Z,1.99
2019-04-04T03:53:01.981Z,2.64
2019-04-04T03:56:38.670Z,2.85
2019-04-04T04:00:24.365Z,2.11
2019-04-04T04:03:55.522Z,2.61
2019-04-04T04:07:25.773Z,2.06
2019-04-04T04:10:55.910Z,2.45
2019-04-04T04:14:25.977Z,2.04
2019-04-04T04:17:55.913Z,2.27
2019-04-04T04:21:25.951Z,2.95
2019-04-04T04:24:56.214Z,2.6
2019-04-04T04:28:26.195Z,2.5
2019-04-04T04:31:56.374Z,3.79
2019-04-04T04:35:26.514Z,2.11
2019-04-04T04:39:00.073Z,2.56
2019-04-04T04:42:30.377Z,2.86
2019-04-04T04:46:00.497Z,2.22
2019-04-04T04:49:30.522Z,2.56
2019-04-04T04:53:00.581Z,3.27
2019-04-04T04:56:31.389Z,2.65
2019-04-04T05:00:16.037Z,3.2
2019-04-04T05:03:47.018Z,1.95
2019-04-04T05:07:17.239Z,1.79
2019-04-04T05:10:47.279Z,3.39
2019-04-04T05:14:17.362Z,4.41
2019-04-04T05:17:47.442Z,2.35
2019-04-04T05:21:24.870Z,2.73
2019-04-04T05:25:08.064Z,3.08
2019-04-04T05:28:41.832Z,5.41
2019-04-04T05:32:12.193Z,4.92
2019-04-04T05:35:42.236Z,3.96
2019-04-04T05:39:12.346Z,5.11
2019-04-04T05:42:42.478Z,2.96
2019-04-04T05:46:12.599Z,5.91
2019-04-04T05:49:42.763Z,5.41
2019-04-04T05:53:12.786Z,4.83
2019-04-04T05:56:44.534Z,6.03
2019-04-04T06:00:16.022Z,4.01
2019-04-04T06:03:47.809Z,5.5
2019-04-04T06:07:18.163Z,2.7
2019-04-04T06:10:50.117Z,5.19
2019-04-04T06:14:20.782Z,3.12
2019-04-04T06:17:50.913Z,3.5
2019-04-04T06:21:20.968Z,3.9
2019-04-04T06:24:52.099Z,3.02
2019-04-04T06:28:22.439Z,2.62
2019-04-04T06:31:52.599Z,2.74
2019-04-04T06:35:22.819Z,3.49
2019-04-04T06:38:53.896Z,3.4
2019-04-04T06:42:24.641Z,3.67
2019-04-04T06:45:54.817Z,2.98
2019-04-04T06:49:24.891Z,3.41
2019-04-04T06:52:56.551Z,3.49
2019-04-04T06:56:26.874Z,3.15
2019-04-04T06:59:56.901Z,2.34
2019-04-04T07:00:15.918Z,3.64
2019-04-04T07:03:46.710Z,3.1
2019-04-04T07:07:16.802Z,3.89
2019-04-04T07:10:57.337Z,2.65
2019-04-04T07:14:29.888Z,2.45
2019-04-04T07:18:02.000Z,2.8
2019-04-04T07:21:31.986Z,3.24
2019-04-04T07:25:05.764Z,3.88
2019-04-04T07:28:36.670Z,2.99
2019-04-04T07:32:07.211Z,3.4
2019-04-04T07:35:39.473Z,4.12
2019-04-04T07:39:12.246Z,2.94
2019-04-04T07:42:42.595Z,3.17
2019-04-04T07:46:16.710Z,2.89
2019-04-04T07:49:47.225Z,3.56
2019-04-04T07:53:17.235Z,3.2
2019-04-04T07:56:48.875Z,2.55
2019-04-04T08:00:19.248Z,3.34
2019-04-04T08:03:49.380Z,3.89
2019-04-04T08:07:19.477Z,3.71
2019-04-04T08:10:49.547Z,3.15
2019-04-04T08:14:19.731Z,4.04
2019-04-04T08:17:49.884Z,4.09
2019-04-04T08:21:20.002Z,3.69
2019-04-04T08:24:50.093Z,3.16
2019-04-04T08:28:20.276Z,3.06
2019-04-04T08:31:50.430Z,2.7
2019-04-04T08:35:20.516Z,2.79
2019-04-04T08:38:50.639Z,2.55
2019-04-04T08:42:20.709Z,2.83
2019-04-04T08:45:50.839Z,3.6
2019-04-04T08:49:20.992Z,3.6
2019-04-04T08:52:51.221Z,3.55
2019-04-04T08:56:21.322Z,3.51
2019-04-04T08:59:51.409Z,3.36
2019-04-04T09:00:15.664Z,3.58
2019-04-04T09:03:45.837Z,3.6
2019-04-04T09:07:15.958Z,3.59
2019-04-04T09:10:46.171Z,3.56
2019-04-04T09:14:16.235Z,3.26
2019-04-04T09:17:46.394Z,3.2
2019-04-04T09:21:16.653Z,3.59
2019-04-04T09:24:46.907Z,3.94
2019-04-04T09:28:17.071Z,3.3
2019-04-04T09:31:47.213Z,3.51
2019-04-04T09:35:17.350Z,3.02
2019-04-04T09:38:47.457Z,4.28
2019-04-04T09:42:17.598Z,3.84
2019-04-04T09:45:47.800Z,4.69
2019-04-04T09:49:18.001Z,3.6
2019-04-04T09:52:48.134Z,3.49
2019-04-04T09:56:18.269Z,2.91
2019-04-04T09:59:48.425Z,3.33
2019-04-04T10:03:18.592Z,3.38
2019-04-04T10:06:48.816Z,3.04
2019-04-04T10:10:19.397Z,3.66
2019-04-04T10:13:49.551Z,3.62
2019-04-04T10:17:19.740Z,3.89
2019-04-04T10:20:49.964Z,3.9
2019-04-04T10:24:20.110Z,3.34
2019-04-04T10:27:50.184Z,4.84
2019-04-04T10:31:20.336Z,3.25
2019-04-04T10:34:50.483Z,3.95
2019-04-04T10:38:20.587Z,3.59
2019-04-04T10:41:50.842Z,3.34
2019-04-04T10:45:20.938Z,4.38
2019-04-04T10:48:51.241Z,3.75
2019-04-04T10:52:21.357Z,3.23
2019-04-04T10:55:51.548Z,5.08
2019-04-04T10:59:21.690Z,4.28
2019-04-04T11:00:15.686Z,4.88
2019-04-04T11:03:45.841Z,3.8
2019-04-04T11:07:15.941Z,3.99
2019-04-04T11:10:46.081Z,4.78
2019-04-04T11:14:16.224Z,4.08
2019-04-04T11:17:46.357Z,4.01
2019-04-04T11:21:16.517Z,4.01
2019-04-04T11:24:46.714Z,3.31
2019-04-04T11:28:16.770Z,3.92
2019-04-04T11:31:46.867Z,3.76
2019-04-04T11:35:16.947Z,3.75
2019-04-04T11:38:46.931Z,3.91
2019-04-04T11:42:17.014Z,4.05
2019-04-04T11:45:47.102Z,4.65
2019-04-04T11:49:17.173Z,4.22
2019-04-04T11:52:47.274Z,4.55
2019-04-04T11:56:17.305Z,4.01
2019-04-04T11:59:47.385Z,4.03
2019-04-04T12:03:17.418Z,5.85
2019-04-04T12:06:47.548Z,4.97
2019-04-04T12:10:17.662Z,3.15
2019-04-04T12:13:50.444Z,4.76
2019-04-04T12:17:20.888Z,4.69
2019-04-04T12:20:50.956Z,3.82
2019-04-04T12:24:21.087Z,5.12
2019-04-04T12:27:51.297Z,3.79
2019-04-04T12:31:21.525Z,3.6
2019-04-04T12:34:51.849Z,4.55
2019-04-04T12:38:22.036Z,4.38
2019-04-04T12:41:52.177Z,4.38
2019-04-04T12:45:22.740Z,3.96
2019-04-04T12:48:52.914Z,5.39
2019-04-04T12:52:23.033Z,3.94
2019-04-04T12:55:54.302Z,5.95
2019-04-04T12:59:24.597Z,4.94
2019-04-04T13:00:15.981Z,5.04
2019-04-04T13:03:46.222Z,4.14
2019-04-04T13:07:16.290Z,3.85
2019-04-04T13:10:46.569Z,5.89
2019-04-04T13:14:16.691Z,7.1
2019-04-04T13:17:46.712Z,4.94
2019-04-04T13:21:16.717Z,4.4
2019-04-04T13:24:46.887Z,4.44
2019-04-04T13:28:17.010Z,4.99
2019-04-04T13:31:47.102Z,5.78
2019-04-04T13:35:17.170Z,7.21
2019-04-04T13:38:47.248Z,4.48
2019-04-04T13:42:17.271Z,5.76
2019-04-04T13:45:47.495Z,5.03
2019-04-04T13:49:17.639Z,5
2019-04-04T13:52:47.897Z,3.85
2019-04-04T13:56:17.942Z,6.64
2019-04-04T13:59:48.185Z,5.01
2019-04-04T14:03:18.872Z,8.33
2019-04-04T14:06:49.213Z,4.31
2019-04-04T14:10:19.353Z,6.38
2019-04-04T14:13:49.642Z,6.14
2019-04-04T14:17:19.864Z,5.71
2019-04-04T14:21:02.956Z,7.89
2019-04-04T14:24:34.343Z,5.17
2019-04-04T14:28:04.564Z,5.7
2019-04-04T14:31:34.664Z,6.79
2019-04-04T14:35:05.175Z,5.22
2019-04-04T14:38:35.357Z,6.54
2019-04-04T14:42:05.637Z,5.66
2019-04-04T14:45:35.891Z,8.3
2019-04-04T14:49:06.077Z,9.93
2019-04-04T14:52:39.170Z,7.29
2019-04-04T14:56:09.823Z,4.03
2019-04-04T14:59:39.974Z,5.83
2019-04-04T15:00:17.389Z,6.99
2019-04-04T15:03:47.685Z,7.26
2019-04-04T15:07:17.819Z,8.43
2019-04-04T15:10:47.832Z,6.24
2019-04-04T15:14:17.924Z,9.67
2019-04-04T15:17:48.200Z,10.49
2019-04-04T15:21:18.237Z,7.61
2019-04-04T15:24:48.360Z,6.28
2019-04-04T15:28:18.553Z,4.85
2019-04-04T15:31:48.565Z,5.55
2019-04-04T15:35:18.672Z,6.64
2019-04-04T15:38:48.826Z,6.34
2019-04-04T15:42:18.816Z,7.56
2019-04-04T15:45:48.987Z,9.53
2019-04-04T15:49:19.176Z,6.8
2019-04-04T15:52:49.155Z,10.4
2019-04-04T15:56:19.353Z,7.71
2019-04-04T15:59:49.502Z,6.61
2019-04-04T16:03:19.642Z,9.54
2019-04-04T16:06:49.703Z,10.49
2019-04-04T16:10:19.934Z,12.66
2019-04-04T16:13:49.952Z,6.93
2019-04-04T16:17:20.236Z,8.59
2019-04-04T16:20:50.263Z,11.55
2019-04-04T16:24:20.583Z,14.1
2019-04-04T16:27:50.684Z,16.75
2019-04-04T16:31:20.894Z,12.86
2019-04-04T16:34:52.579Z,8.88
2019-04-04T16:38:23.113Z,13.25
2019-04-04T16:42:02.017Z,12.62
2019-04-04T16:45:32.833Z,12.5
2019-04-04T16:49:03.034Z,12.12
2019-04-04T16:52:33.147Z,14.31
2019-04-04T16:56:03.695Z,9.26
2019-04-04T16:59:34.016Z,7.6
2019-04-04T17:00:17.092Z,8.75
2019-04-04T17:03:47.217Z,8.43
2019-04-04T17:07:17.363Z,7.98
2019-04-04T17:10:47.378Z,5.43
2019-04-04T17:14:17.488Z,4.97
2019-04-04T17:17:47.508Z,5.83
2019-04-04T17:21:17.614Z,4.64
2019-04-04T17:24:47.753Z,6.92
2019-04-04T17:28:18.055Z,3.29
2019-04-04T17:31:48.159Z,4.91
2019-04-04T17:35:18.884Z,4.7
2019-04-04T17:38:49.256Z,4.34
2019-04-04T17:42:29.605Z,4.36
2019-04-04T17:46:02.137Z,3.82
2019-04-04T17:49:32.720Z,4.78
2019-04-04T17:53:03.037Z,4.35
2019-04-04T17:56:33.157Z,7.01
2019-04-04T18:00:04.741Z,5.58
2019-04-04T18:03:34.875Z,6.92
2019-04-04T18:07:04.995Z,4.64
2019-04-04T18:10:35.072Z,4.22
2019-04-04T18:14:05.150Z,4.31
2019-04-04T18:17:35.402Z,7.41
2019-04-04T18:21:05.627Z,4.65
2019-04-04T18:24:35.664Z,6.5
2019-04-04T18:28:05.918Z,6.96
2019-04-04T18:31:35.934Z,6.91
2019-04-04T18:35:06.519Z,7.6
2019-04-04T18:38:36.597Z,6.61
2019-04-04T18:42:06.756Z,4.36
2019-04-04T18:45:36.830Z,7.01
2019-04-04T18:49:07.008Z,5.74
2019-04-04T18:52:37.155Z,5.88
2019-04-04T18:56:07.169Z,4.61
2019-04-04T18:59:37.286Z,4.76
2019-04-04T19:00:16.839Z,6.38
2019-04-04T19:03:47.018Z,5.91
2019-04-04T19:07:17.167Z,5.34
2019-04-04T19:10:47.250Z,4.15
2019-04-04T19:14:17.346Z,4.59
2019-04-04T19:17:47.429Z,5.44
2019-04-04T19:21:17.479Z,6.94
2019-04-04T19:24:47.644Z,5.99
2019-04-04T19:28:17.797Z,7.24
2019-04-04T19:31:47.811Z,6.12
2019-04-04T19:35:18.261Z,4.26
2019-04-04T19:38:48.337Z,4.97
2019-04-04T19:42:18.325Z,4.55
2019-04-04T19:45:48.503Z,5.43
2019-04-04T19:49:18.657Z,3.66
2019-04-04T19:52:48.853Z,4.81
2019-04-04T19:56:18.799Z,4.05
2019-04-04T19:59:48.954Z,5
2019-04-04T20:03:19.110Z,4.26
2019-04-04T20:06:49.308Z,4.47
2019-04-04T20:10:19.522Z,3.7
2019-04-04T20:13:49.726Z,5.54
2019-04-04T20:17:19.847Z,4.95
2019-04-04T20:20:49.999Z,3.51
2019-04-04T20:24:20.143Z,3.93
2019-04-04T20:27:55.032Z,4.45
2019-04-04T20:31:25.421Z,4.36
2019-04-04T20:34:55.670Z,5.74
2019-04-04T20:38:25.758Z,5.26
2019-04-04T20:41:55.866Z,4.74
2019-04-04T20:45:25.994Z,4.84
2019-04-04T20:48:56.051Z,5.45
2019-04-04T20:52:26.023Z,6.5
2019-04-04T20:55:56.115Z,5.82
2019-04-04T20:59:28.021Z,4.68
2019-04-04T21:00:56.403Z,5.75
2019-04-04T21:04:26.588Z,5.66
2019-04-04T21:07:56.633Z,6.34
2019-04-04T21:11:26.718Z,6.26
2019-04-04T21:14:56.765Z,5.58
2019-04-04T21:18:26.783Z,6.48
2019-04-04T21:21:56.884Z,6.65
2019-04-04T21:25:27.039Z,5.41
2019-04-04T21:28:57.096Z,4.61
2019-04-04T21:32:27.149Z,6.18
2019-04-04T21:35:57.340Z,5.08
2019-04-04T21:39:29.783Z,5.4
2019-04-04T21:43:00.186Z,4.31
2019-04-04T21:46:30.332Z,4.59
2019-04-04T21:50:00.517Z,5.74
2019-04-04T21:53:30.575Z,4.12
2019-04-04T21:57:00.703Z,4.84
2019-04-04T22:00:42.605Z,11.07
2019-04-04T22:04:12.681Z,4.41
2019-04-04T22:07:42.821Z,4.8
2019-04-04T22:11:12.995Z,5.94
2019-04-04T22:14:43.067Z,4.7
2019-04-04T22:18:13.156Z,5.45
2019-04-04T22:21:43.287Z,5.65
2019-04-04T22:25:13.347Z,6.62
2019-04-04T22:28:43.459Z,6.79
2019-04-04T22:32:13.452Z,7.15
2019-04-04T22:35:43.545Z,5.64
2019-04-04T22:39:13.567Z,5.38
2019-04-04T22:42:43.606Z,5
2019-04-04T22:46:13.680Z,5.8
2019-04-04T22:49:43.690Z,5.79
2019-04-04T22:53:13.680Z,6.96
2019-04-04T22:56:43.892Z,5.85
2019-04-04T23:00:16.621Z,6.44
2019-04-04T23:03:46.733Z,7.53
2019-04-04T23:07:16.727Z,5.97
2019-04-04T23:10:46.818Z,6.41
2019-04-04T23:14:16.870Z,6.08
2019-04-04T23:17:47.099Z,7.29
2019-04-04T23:21:17.222Z,6.31
2019-04-04T23:24:47.336Z,6.1
2019-04-04T23:28:17.462Z,10.7
2019-04-04T23:31:47.586Z,7.03
2019-04-04T23:35:17.746Z,5.31
2019-04-04T23:38:47.986Z,5.75
2019-04-04T23:42:18.130Z,5.75
2019-04-04T23:45:48.230Z,7.07
2019-04-04T23:49:18.289Z,5.39
2019-04-04T23:52:48.476Z,5
2019-04-04T23:56:18.540Z,5.44
2019-04-04T23:59:48.630Z,6.71
